sensor_id;sensor_type;location;lat;lon;timestamp;temperature;humidity
41838;DHT22;27511;52.042;5.178;2023-04-25T00:01:14;9.70;99.90
41838;DHT22;27511;52.042;5.178;2023-04-25T00:03:39;9.70;99.90
41838;DHT22;27511;52.042;5.178;2023-04-25T00:06:05;9.60;99.90
41838;DHT22;27511;52.042;5.178;2023-04-25T00:08:32;9.50;99.90
41838;DHT22;27511;52.042;5.178;2023-04-25T00:10:57;9.40;99.90
41838;DHT22;27511;52.042;5.178;2023-04-25T00:13:23;9.40;99.90
41838;DHT22;27511;52.042;5.178;2023-04-25T00:15:50;9.40;99.90
41838;DHT22;27511;52.042;5.178;2023-04-25T00:18:16;9.40;99.90
41838;DHT22;27511;52.042;5.178;2023-04-25T00:20:43;9.30;99.90
41838;DHT22;27511;52.042;5.178;2023-04-25T00:23:12;9.40;99.90
41838;DHT22;27511;52.042;5.178;2023-04-25T00:25:38;9.50;99.90
41838;DHT22;27511;52.042;5.178;2023-04-25T00:28:03;9.70;99.90
41838;DHT22;27511;52.042;5.178;2023-04-25T00:30:28;9.80;99.90
41838;DHT22;27511;52.042;5.178;2023-04-25T00:32:54;9.90;99.90
41838;DHT22;27511;52.042;5.178;2023-04-25T00:35:20;10.00;99.90
41838;DHT22;27511;52.042;5.178;2023-04-25T00:37:46;10.00;99.90
41838;DHT22;27511;52.042;5.178;2023-04-25T00:40:11;10.00;99.90
41838;DHT22;27511;52.042;5.178;2023-04-25T00:42:37;10.00;99.90
41838;DHT22;27511;52.042;5.178;2023-04-25T00:45:04;10.10;99.90
41838;DHT22;27511;52.042;5.178;2023-04-25T00:47:30;10.10;99.90
41838;DHT22;27511;52.042;5.178;2023-04-25T00:49:57;10.20;99.90
41838;DHT22;27511;52.042;5.178;2023-04-25T00:52:22;10.20;99.90
41838;DHT22;27511;52.042;5.178;2023-04-25T00:54:48;10.20;99.90
41838;DHT22;27511;52.042;5.178;2023-04-25T00:57:13;10.20;99.90
41838;DHT22;27511;52.042;5.178;2023-04-25T00:59:39;10.40;99.90
41838;DHT22;27511;52.042;5.178;2023-04-25T01:02:06;10.30;99.90
41838;DHT22;27511;52.042;5.178;2023-04-25T01:04:32;10.20;99.90
41838;DHT22;27511;52.042;5.178;2023-04-25T01:06:58;10.10;99.90
41838;DHT22;27511;52.042;5.178;2023-04-25T01:09:23;10.20;99.90
41838;DHT22;27511;52.042;5.178;2023-04-25T01:11:49;10.20;99.90
41838;DHT22;27511;52.042;5.178;2023-04-25T01:14:15;10.10;99.90
41838;DHT22;27511;52.042;5.178;2023-04-25T01:16:41;10.00;99.90
41838;DHT22;27511;52.042;5.178;2023-04-25T01:19:08;9.90;99.90
41838;DHT22;27511;52.042;5.178;2023-04-25T01:21:36;9.60;99.90
41838;DHT22;27511;52.042;5.178;2023-04-25T01:24:01;9.60;99.90
41838;DHT22;27511;52.042;5.178;2023-04-25T01:26:27;9.70;99.90
41838;DHT22;27511;52.042;5.178;2023-04-25T01:28:52;9.70;99.90
41838;DHT22;27511;52.042;5.178;2023-04-25T01:31:18;9.70;99.90
41838;DHT22;27511;52.042;5.178;2023-04-25T01:33:44;9.60;99.90
41838;DHT22;27511;52.042;5.178;2023-04-25T01:36:10;9.60;99.90
41838;DHT22;27511;52.042;5.178;2023-04-25T01:38:36;9.70;99.90
41838;DHT22;27511;52.042;5.178;2023-04-25T01:41:01;9.70;99.90
41838;DHT22;27511;52.042;5.178;2023-04-25T01:43:27;9.70;99.90
41838;DHT22;27511;52.042;5.178;2023-04-25T01:45:52;9.60;99.90
41838;DHT22;27511;52.042;5.178;2023-04-25T01:48:18;9.50;99.90
41838;DHT22;27511;52.042;5.178;2023-04-25T01:50:43;9.40;99.90
41838;DHT22;27511;52.042;5.178;2023-04-25T01:53:09;9.30;99.90
41838;DHT22;27511;52.042;5.178;2023-04-25T01:55:36;9.40;99.90
41838;DHT22;27511;52.042;5.178;2023-04-25T01:58:02;9.40;99.90
41838;DHT22;27511;52.042;5.178;2023-04-25T02:00:28;9.40;99.90
41838;DHT22;27511;52.042;5.178;2023-04-25T02:02:53;9.30;99.90
41838;DHT22;27511;52.042;5.178;2023-04-25T02:05:19;9.30;99.90
41838;DHT22;27511;52.042;5.178;2023-04-25T02:07:45;9.40;99.90
41838;DHT22;27511;52.042;5.178;2023-04-25T02:10:11;9.50;99.90
41838;DHT22;27511;52.042;5.178;2023-04-25T02:12:36;9.40;99.90
41838;DHT22;27511;52.042;5.178;2023-04-25T02:15:02;9.50;99.90
41838;DHT22;27511;52.042;5.178;2023-04-25T02:17:27;9.40;99.90
41838;DHT22;27511;52.042;5.178;2023-04-25T02:19:53;9.10;99.90
41838;DHT22;27511;52.042;5.178;2023-04-25T02:22:18;9.10;99.90
41838;DHT22;27511;52.042;5.178;2023-04-25T02:24:44;9.10;99.90
41838;DHT22;27511;52.042;5.178;2023-04-25T02:27:09;9.10;99.90
41838;DHT22;27511;52.042;5.178;2023-04-25T02:29:35;9.30;99.90
41838;DHT22;27511;52.042;5.178;2023-04-25T02:32:00;9.10;99.90
41838;DHT22;27511;52.042;5.178;2023-04-25T02:34:26;9.10;99.90
41838;DHT22;27511;52.042;5.178;2023-04-25T02:36:51;9.20;99.90
41838;DHT22;27511;52.042;5.178;2023-04-25T02:39:17;9.10;99.90
41838;DHT22;27511;52.042;5.178;2023-04-25T02:41:42;9.10;99.90
41838;DHT22;27511;52.042;5.178;2023-04-25T02:44:08;9.00;99.90
41838;DHT22;27511;52.042;5.178;2023-04-25T02:46:33;8.90;99.90
41838;DHT22;27511;52.042;5.178;2023-04-25T02:48:58;8.90;99.90
41838;DHT22;27511;52.042;5.178;2023-04-25T02:51:24;9.00;99.90
41838;DHT22;27511;52.042;5.178;2023-04-25T02:53:50;9.10;99.90
41838;DHT22;27511;52.042;5.178;2023-04-25T02:56:15;9.20;99.90
41838;DHT22;27511;52.042;5.178;2023-04-25T02:58:41;9.30;99.90
41838;DHT22;27511;52.042;5.178;2023-04-25T03:01:06;9.40;99.90
41838;DHT22;27511;52.042;5.178;2023-04-25T03:03:32;9.40;99.90
41838;DHT22;27511;52.042;5.178;2023-04-25T03:05:57;9.40;99.90
41838;DHT22;27511;52.042;5.178;2023-04-25T03:08:22;9.30;99.90
41838;DHT22;27511;52.042;5.178;2023-04-25T03:10:48;9.30;99.90
41838;DHT22;27511;52.042;5.178;2023-04-25T03:13:15;9.20;99.90
41838;DHT22;27511;52.042;5.178;2023-04-25T03:15:40;9.20;99.90
41838;DHT22;27511;52.042;5.178;2023-04-25T03:18:06;9.10;99.90
41838;DHT22;27511;52.042;5.178;2023-04-25T03:20:31;9.00;99.90
41838;DHT22;27511;52.042;5.178;2023-04-25T03:22:57;9.10;99.90
41838;DHT22;27511;52.042;5.178;2023-04-25T03:25:22;9.20;99.90
41838;DHT22;27511;52.042;5.178;2023-04-25T03:27:48;9.30;99.90
41838;DHT22;27511;52.042;5.178;2023-04-25T03:30:13;9.20;99.90
41838;DHT22;27511;52.042;5.178;2023-04-25T03:32:39;9.10;99.90
41838;DHT22;27511;52.042;5.178;2023-04-25T03:35:04;8.80;99.90
41838;DHT22;27511;52.042;5.178;2023-04-25T03:37:30;8.40;99.90
41838;DHT22;27511;52.042;5.178;2023-04-25T03:39:56;8.30;99.90
41838;DHT22;27511;52.042;5.178;2023-04-25T03:42:21;8.20;99.90
41838;DHT22;27511;52.042;5.178;2023-04-25T03:44:48;8.10;99.90
41838;DHT22;27511;52.042;5.178;2023-04-25T03:47:14;8.10;99.90
41838;DHT22;27511;52.042;5.178;2023-04-25T03:49:39;8.20;99.90
41838;DHT22;27511;52.042;5.178;2023-04-25T03:52:05;8.40;99.90
41838;DHT22;27511;52.042;5.178;2023-04-25T03:54:30;8.50;99.90
41838;DHT22;27511;52.042;5.178;2023-04-25T03:56:56;8.60;99.90
41838;DHT22;27511;52.042;5.178;2023-04-25T03:59:21;8.80;99.90
41838;DHT22;27511;52.042;5.178;2023-04-25T04:01:47;8.90;99.90
41838;DHT22;27511;52.042;5.178;2023-04-25T04:04:12;9.00;99.90
41838;DHT22;27511;52.042;5.178;2023-04-25T04:06:38;9.20;99.90
41838;DHT22;27511;52.042;5.178;2023-04-25T04:09:03;9.40;99.90
41838;DHT22;27511;52.042;5.178;2023-04-25T04:11:29;9.50;99.90
41838;DHT22;27511;52.042;5.178;2023-04-25T04:13:54;9.40;99.90
41838;DHT22;27511;52.042;5.178;2023-04-25T04:16:20;9.40;99.90
41838;DHT22;27511;52.042;5.178;2023-04-25T04:18:45;9.40;99.90
41838;DHT22;27511;52.042;5.178;2023-04-25T04:21:11;9.40;99.90
41838;DHT22;27511;52.042;5.178;2023-04-25T04:23:36;9.50;99.90
41838;DHT22;27511;52.042;5.178;2023-04-25T04:26:02;9.60;99.90
41838;DHT22;27511;52.042;5.178;2023-04-25T04:28:28;9.80;99.90
41838;DHT22;27511;52.042;5.178;2023-04-25T04:30:53;9.80;99.90
41838;DHT22;27511;52.042;5.178;2023-04-25T04:33:19;9.80;99.90
41838;DHT22;27511;52.042;5.178;2023-04-25T04:35:45;9.80;99.90
41838;DHT22;27511;52.042;5.178;2023-04-25T04:38:12;9.70;99.90
41838;DHT22;27511;52.042;5.178;2023-04-25T04:40:40;9.80;99.90
41838;DHT22;27511;52.042;5.178;2023-04-25T04:43:06;9.80;99.90
41838;DHT22;27511;52.042;5.178;2023-04-25T04:45:34;9.70;99.90
41838;DHT22;27511;52.042;5.178;2023-04-25T04:47:59;9.50;99.90
41838;DHT22;27511;52.042;5.178;2023-04-25T04:50:25;9.40;99.90
41838;DHT22;27511;52.042;5.178;2023-04-25T04:52:51;9.30;99.90
41838;DHT22;27511;52.042;5.178;2023-04-25T04:55:17;9.30;99.90
41838;DHT22;27511;52.042;5.178;2023-04-25T04:57:42;9.20;99.90
41838;DHT22;27511;52.042;5.178;2023-04-25T05:00:08;9.20;99.90
41838;DHT22;27511;52.042;5.178;2023-04-25T05:02:36;9.20;99.90
41838;DHT22;27511;52.042;5.178;2023-04-25T05:05:02;9.30;99.90
41838;DHT22;27511;52.042;5.178;2023-04-25T05:07:27;9.30;99.90
41838;DHT22;27511;52.042;5.178;2023-04-25T05:09:53;9.30;99.90
41838;DHT22;27511;52.042;5.178;2023-04-25T05:12:18;9.30;99.90
41838;DHT22;27511;52.042;5.178;2023-04-25T05:14:44;9.40;99.90
41838;DHT22;27511;52.042;5.178;2023-04-25T05:17:09;9.40;99.90
41838;DHT22;27511;52.042;5.178;2023-04-25T05:19:35;9.50;99.90
41838;DHT22;27511;52.042;5.178;2023-04-25T05:22:01;9.60;99.90
41838;DHT22;27511;52.042;5.178;2023-04-25T05:24:26;9.70;99.90
41838;DHT22;27511;52.042;5.178;2023-04-25T05:26:51;9.60;99.90
41838;DHT22;27511;52.042;5.178;2023-04-25T05:29:17;9.70;99.90
41838;DHT22;27511;52.042;5.178;2023-04-25T05:31:42;9.80;99.90
41838;DHT22;27511;52.042;5.178;2023-04-25T05:34:09;9.70;99.90
41838;DHT22;27511;52.042;5.178;2023-04-25T05:36:34;9.70;99.90
41838;DHT22;27511;52.042;5.178;2023-04-25T05:39:00;9.70;99.90
41838;DHT22;27511;52.042;5.178;2023-04-25T05:41:25;9.60;99.90
41838;DHT22;27511;52.042;5.178;2023-04-25T05:43:50;9.60;99.90
41838;DHT22;27511;52.042;5.178;2023-04-25T05:46:16;9.60;99.90
41838;DHT22;27511;52.042;5.178;2023-04-25T05:48:42;9.70;99.90
41838;DHT22;27511;52.042;5.178;2023-04-25T05:51:08;9.70;99.90
41838;DHT22;27511;52.042;5.178;2023-04-25T05:53:33;9.90;99.90
41838;DHT22;27511;52.042;5.178;2023-04-25T05:55:59;10.00;99.90
41838;DHT22;27511;52.042;5.178;2023-04-25T05:58:24;10.10;99.90
41838;DHT22;27511;52.042;5.178;2023-04-25T06:00:50;10.00;99.90
41838;DHT22;27511;52.042;5.178;2023-04-25T06:03:15;10.00;99.90
41838;DHT22;27511;52.042;5.178;2023-04-25T06:05:41;10.00;99.90
41838;DHT22;27511;52.042;5.178;2023-04-25T06:08:07;10.00;99.90
41838;DHT22;27511;52.042;5.178;2023-04-25T06:10:32;10.00;99.90
41838;DHT22;27511;52.042;5.178;2023-04-25T06:12:58;10.00;99.90
41838;DHT22;27511;52.042;5.178;2023-04-25T06:15:23;9.90;99.90
41838;DHT22;27511;52.042;5.178;2023-04-25T06:17:49;10.00;99.90
41838;DHT22;27511;52.042;5.178;2023-04-25T06:20:14;10.00;99.90
41838;DHT22;27511;52.042;5.178;2023-04-25T06:22:40;10.00;99.90
41838;DHT22;27511;52.042;5.178;2023-04-25T06:25:08;10.10;99.90
41838;DHT22;27511;52.042;5.178;2023-04-25T06:27:34;10.20;99.90
41838;DHT22;27511;52.042;5.178;2023-04-25T06:29:59;10.40;99.90
41838;DHT22;27511;52.042;5.178;2023-04-25T06:32:25;10.40;99.90
41838;DHT22;27511;52.042;5.178;2023-04-25T06:34:52;10.50;99.90
41838;DHT22;27511;52.042;5.178;2023-04-25T06:37:18;10.50;99.90
41838;DHT22;27511;52.042;5.178;2023-04-25T06:39:43;10.40;99.90
41838;DHT22;27511;52.042;5.178;2023-04-25T06:42:09;10.40;99.90
41838;DHT22;27511;52.042;5.178;2023-04-25T06:44:35;10.50;99.90
41838;DHT22;27511;52.042;5.178;2023-04-25T06:47:01;10.70;99.90
41838;DHT22;27511;52.042;5.178;2023-04-25T06:49:26;10.40;99.90
41838;DHT22;27511;52.042;5.178;2023-04-25T06:51:52;10.10;99.90
41838;DHT22;27511;52.042;5.178;2023-04-25T06:54:17;10.00;99.90
41838;DHT22;27511;52.042;5.178;2023-04-25T06:56:43;10.20;99.90
41838;DHT22;27511;52.042;5.178;2023-04-25T06:59:11;10.40;99.90
41838;DHT22;27511;52.042;5.178;2023-04-25T07:01:36;10.40;99.90
41838;DHT22;27511;52.042;5.178;2023-04-25T07:04:01;10.40;99.90
41838;DHT22;27511;52.042;5.178;2023-04-25T07:06:27;10.50;99.90
41838;DHT22;27511;52.042;5.178;2023-04-25T07:08:53;10.60;99.90
41838;DHT22;27511;52.042;5.178;2023-04-25T07:11:18;10.80;99.90
41838;DHT22;27511;52.042;5.178;2023-04-25T07:13:44;10.90;99.90
41838;DHT22;27511;52.042;5.178;2023-04-25T07:16:09;11.00;99.90
41838;DHT22;27511;52.042;5.178;2023-04-25T07:18:35;10.90;99.90
41838;DHT22;27511;52.042;5.178;2023-04-25T07:21:00;11.00;99.90
41838;DHT22;27511;52.042;5.178;2023-04-25T07:23:26;11.00;99.90
41838;DHT22;27511;52.042;5.178;2023-04-25T07:25:51;11.10;99.90
41838;DHT22;27511;52.042;5.178;2023-04-25T07:28:17;11.20;99.90
41838;DHT22;27511;52.042;5.178;2023-04-25T07:30:43;11.20;99.90
41838;DHT22;27511;52.042;5.178;2023-04-25T07:33:08;11.20;99.90
41838;DHT22;27511;52.042;5.178;2023-04-25T07:35:34;11.00;99.90
41838;DHT22;27511;52.042;5.178;2023-04-25T07:37:59;11.00;99.90
41838;DHT22;27511;52.042;5.178;2023-04-25T07:40:25;11.00;99.90
41838;DHT22;27511;52.042;5.178;2023-04-25T07:42:50;10.90;99.90
41838;DHT22;27511;52.042;5.178;2023-04-25T07:45:16;10.90;99.90
41838;DHT22;27511;52.042;5.178;2023-04-25T07:47:41;10.70;99.90
41838;DHT22;27511;52.042;5.178;2023-04-25T07:50:07;10.50;99.90
41838;DHT22;27511;52.042;5.178;2023-04-25T07:52:33;10.30;99.90
41838;DHT22;27511;52.042;5.178;2023-04-25T07:54:58;10.10;99.90
41838;DHT22;27511;52.042;5.178;2023-04-25T07:57:24;10.00;99.90
41838;DHT22;27511;52.042;5.178;2023-04-25T07:59:55;10.00;99.90
41838;DHT22;27511;52.042;5.178;2023-04-25T08:02:30;10.00;99.90
41838;DHT22;27511;52.042;5.178;2023-04-25T08:04:55;10.20;99.90
41838;DHT22;27511;52.042;5.178;2023-04-25T08:07:27;10.10;99.90
41838;DHT22;27511;52.042;5.178;2023-04-25T08:09:58;10.20;99.90
41838;DHT22;27511;52.042;5.178;2023-04-25T08:12:24;10.30;99.90
41838;DHT22;27511;52.042;5.178;2023-04-25T08:14:50;10.20;99.90
41838;DHT22;27511;52.042;5.178;2023-04-25T08:17:15;10.30;99.90
41838;DHT22;27511;52.042;5.178;2023-04-25T08:19:41;10.40;99.90
41838;DHT22;27511;52.042;5.178;2023-04-25T08:22:06;10.50;99.90
41838;DHT22;27511;52.042;5.178;2023-04-25T08:24:32;10.70;99.90
41838;DHT22;27511;52.042;5.178;2023-04-25T08:26:58;10.80;99.90
41838;DHT22;27511;52.042;5.178;2023-04-25T08:29:24;10.80;99.90
41838;DHT22;27511;52.042;5.178;2023-04-25T08:31:51;10.80;99.90
41838;DHT22;27511;52.042;5.178;2023-04-25T08:34:20;11.10;99.90
41838;DHT22;27511;52.042;5.178;2023-04-25T08:36:46;11.10;99.90
41838;DHT22;27511;52.042;5.178;2023-04-25T08:39:11;11.30;99.90
41838;DHT22;27511;52.042;5.178;2023-04-25T08:41:38;11.20;99.90
41838;DHT22;27511;52.042;5.178;2023-04-25T08:44:03;11.30;99.90
41838;DHT22;27511;52.042;5.178;2023-04-25T08:46:30;11.20;99.90
41838;DHT22;27511;52.042;5.178;2023-04-25T08:49:00;11.30;99.90
41838;DHT22;27511;52.042;5.178;2023-04-25T08:51:26;11.10;99.90
41838;DHT22;27511;52.042;5.178;2023-04-25T08:53:53;11.20;99.90
41838;DHT22;27511;52.042;5.178;2023-04-25T08:56:18;11.20;99.90
41838;DHT22;27511;52.042;5.178;2023-04-25T08:58:47;11.20;99.90
41838;DHT22;27511;52.042;5.178;2023-04-25T09:01:13;11.30;99.90
41838;DHT22;27511;52.042;5.178;2023-04-25T09:03:39;11.20;99.90
41838;DHT22;27511;52.042;5.178;2023-04-25T09:06:04;11.40;99.90
41838;DHT22;27511;52.042;5.178;2023-04-25T09:08:30;11.60;99.90
41838;DHT22;27511;52.042;5.178;2023-04-25T09:10:56;11.70;99.90
41838;DHT22;27511;52.042;5.178;2023-04-25T09:13:25;11.80;99.90
41838;DHT22;27511;52.042;5.178;2023-04-25T09:15:52;11.90;99.90
41838;DHT22;27511;52.042;5.178;2023-04-25T09:18:25;12.00;99.90
41838;DHT22;27511;52.042;5.178;2023-04-25T09:20:55;11.90;99.90
41838;DHT22;27511;52.042;5.178;2023-04-25T09:23:21;11.90;99.90
41838;DHT22;27511;52.042;5.178;2023-04-25T09:25:51;11.60;99.90
41838;DHT22;27511;52.042;5.178;2023-04-25T09:28:17;11.30;99.90
41838;DHT22;27511;52.042;5.178;2023-04-25T09:30:47;11.30;99.90
41838;DHT22;27511;52.042;5.178;2023-04-25T09:33:13;11.20;99.90
41838;DHT22;27511;52.042;5.178;2023-04-25T09:35:39;11.20;99.90
41838;DHT22;27511;52.042;5.178;2023-04-25T09:40:33;11.10;99.90
41838;DHT22;27511;52.042;5.178;2023-04-25T09:42:59;11.20;99.90
41838;DHT22;27511;52.042;5.178;2023-04-25T09:45:24;11.40;99.90
41838;DHT22;27511;52.042;5.178;2023-04-25T09:47:50;11.50;99.90
41838;DHT22;27511;52.042;5.178;2023-04-25T09:50:16;11.70;99.90
41838;DHT22;27511;52.042;5.178;2023-04-25T09:52:42;11.70;99.90
41838;DHT22;27511;52.042;5.178;2023-04-25T09:55:08;11.70;99.90
41838;DHT22;27511;52.042;5.178;2023-04-25T09:57:33;11.70;99.90
41838;DHT22;27511;52.042;5.178;2023-04-25T10:00:00;11.70;99.90
41838;DHT22;27511;52.042;5.178;2023-04-25T10:02:26;11.70;99.90
41838;DHT22;27511;52.042;5.178;2023-04-25T10:04:55;11.50;99.90
41838;DHT22;27511;52.042;5.178;2023-04-25T10:07:25;11.00;99.90
41838;DHT22;27511;52.042;5.178;2023-04-25T10:09:54;10.30;99.90
41838;DHT22;27511;52.042;5.178;2023-04-25T10:12:20;10.20;99.90
41838;DHT22;27511;52.042;5.178;2023-04-25T10:14:46;10.20;99.90
41838;DHT22;27511;52.042;5.178;2023-04-25T10:17:11;10.00;99.90
41838;DHT22;27511;52.042;5.178;2023-04-25T10:19:37;10.00;99.90
41838;DHT22;27511;52.042;5.178;2023-04-25T10:24:31;10.20;99.90
41838;DHT22;27511;52.042;5.178;2023-04-25T10:26:57;10.20;99.90
41838;DHT22;27511;52.042;5.178;2023-04-25T10:29:26;10.30;99.90
41838;DHT22;27511;52.042;5.178;2023-04-25T10:31:52;10.20;99.90
41838;DHT22;27511;52.042;5.178;2023-04-25T10:34:17;10.30;99.90
41838;DHT22;27511;52.042;5.178;2023-04-25T10:36:44;10.70;99.90
41838;DHT22;27511;52.042;5.178;2023-04-25T10:39:13;10.90;99.90
41838;DHT22;27511;52.042;5.178;2023-04-25T10:41:47;10.70;99.90
41838;DHT22;27511;52.042;5.178;2023-04-25T10:44:13;10.80;99.90
41838;DHT22;27511;52.042;5.178;2023-04-25T10:46:39;10.80;99.90
41838;DHT22;27511;52.042;5.178;2023-04-25T10:49:04;11.10;99.90
41838;DHT22;27511;52.042;5.178;2023-04-25T10:51:33;11.30;99.90
41838;DHT22;27511;52.042;5.178;2023-04-25T10:54:00;11.20;99.90
41838;DHT22;27511;52.042;5.178;2023-04-25T10:56:27;11.30;99.90
41838;DHT22;27511;52.042;5.178;2023-04-25T10:59:09;11.40;99.90
41838;DHT22;27511;52.042;5.178;2023-04-25T11:01:39;11.70;99.90
41838;DHT22;27511;52.042;5.178;2023-04-25T11:04:05;11.70;99.90
41838;DHT22;27511;52.042;5.178;2023-04-25T11:07:13;11.70;99.90
41838;DHT22;27511;52.042;5.178;2023-04-25T11:09:19;11.90;99.90
41838;DHT22;27511;52.042;5.178;2023-04-25T11:11:54;11.90;99.90
41838;DHT22;27511;52.042;5.178;2023-04-25T11:14:20;11.80;99.90
41838;DHT22;27511;52.042;5.178;2023-04-25T11:16:47;12.00;99.90
41838;DHT22;27511;52.042;5.178;2023-04-25T11:19:12;12.00;99.90
41838;DHT22;27511;52.042;5.178;2023-04-25T11:21:38;12.30;99.90
41838;DHT22;27511;52.042;5.178;2023-04-25T11:24:03;12.40;99.90
41838;DHT22;27511;52.042;5.178;2023-04-25T11:26:29;12.60;99.90
41838;DHT22;27511;52.042;5.178;2023-04-25T11:28:58;12.60;99.90
41838;DHT22;27511;52.042;5.178;2023-04-25T11:31:26;12.60;99.90
41838;DHT22;27511;52.042;5.178;2023-04-25T11:33:58;12.40;99.90
41838;DHT22;27511;52.042;5.178;2023-04-25T11:36:24;12.50;99.90
41838;DHT22;27511;52.042;5.178;2023-04-25T11:38:51;12.60;99.90
41838;DHT22;27511;52.042;5.178;2023-04-25T11:41:17;12.60;99.90
41838;DHT22;27511;52.042;5.178;2023-04-25T11:43:43;12.50;99.90
41838;DHT22;27511;52.042;5.178;2023-04-25T11:46:09;12.70;99.90
41838;DHT22;27511;52.042;5.178;2023-04-25T11:48:38;12.90;99.90
41838;DHT22;27511;52.042;5.178;2023-04-25T11:51:04;12.70;99.90
41838;DHT22;27511;52.042;5.178;2023-04-25T11:53:29;13.00;99.90
41838;DHT22;27511;52.042;5.178;2023-04-25T11:55:55;13.10;99.90
41838;DHT22;27511;52.042;5.178;2023-04-25T11:58:21;13.30;99.90
41838;DHT22;27511;52.042;5.178;2023-04-25T12:00:46;13.40;99.90
41838;DHT22;27511;52.042;5.178;2023-04-25T12:03:12;13.30;99.90
41838;DHT22;27511;52.042;5.178;2023-04-25T12:05:39;13.00;99.90
41838;DHT22;27511;52.042;5.178;2023-04-25T12:08:09;12.80;99.90
41838;DHT22;27511;52.042;5.178;2023-04-25T12:10:36;12.40;99.90
41838;DHT22;27511;52.042;5.178;2023-04-25T12:13:16;12.20;99.90
41838;DHT22;27511;52.042;5.178;2023-04-25T12:15:42;12.10;99.90
41838;DHT22;27511;52.042;5.178;2023-04-25T12:18:08;12.00;99.90
41838;DHT22;27511;52.042;5.178;2023-04-25T12:20:33;12.00;99.90
41838;DHT22;27511;52.042;5.178;2023-04-25T12:22:59;11.90;99.90
41838;DHT22;27511;52.042;5.178;2023-04-25T12:28:13;11.50;99.90
41838;DHT22;27511;52.042;5.178;2023-04-25T12:33:17;11.40;99.90
41838;DHT22;27511;52.042;5.178;2023-04-25T12:35:42;11.60;99.90
41838;DHT22;27511;52.042;5.178;2023-04-25T12:38:08;11.90;99.90
41838;DHT22;27511;52.042;5.178;2023-04-25T12:40:33;12.00;99.90
41838;DHT22;27511;52.042;5.178;2023-04-25T12:42:59;12.10;99.90
41838;DHT22;27511;52.042;5.178;2023-04-25T12:45:25;12.40;99.90
41838;DHT22;27511;52.042;5.178;2023-04-25T12:47:51;12.80;99.90
41838;DHT22;27511;52.042;5.178;2023-04-25T12:50:16;13.10;99.90
41838;DHT22;27511;52.042;5.178;2023-04-25T12:52:42;13.20;99.90
41838;DHT22;27511;52.042;5.178;2023-04-25T12:55:07;13.30;99.90
41838;DHT22;27511;52.042;5.178;2023-04-25T12:57:32;13.50;99.90
41838;DHT22;27511;52.042;5.178;2023-04-25T12:59:58;13.50;99.90
41838;DHT22;27511;52.042;5.178;2023-04-25T13:02:23;13.50;99.90
41838;DHT22;27511;52.042;5.178;2023-04-25T13:04:49;13.50;99.90
41838;DHT22;27511;52.042;5.178;2023-04-25T13:07:16;13.40;99.90
41838;DHT22;27511;52.042;5.178;2023-04-25T13:09:42;13.10;99.90
41838;DHT22;27511;52.042;5.178;2023-04-25T13:12:07;12.60;99.90
41838;DHT22;27511;52.042;5.178;2023-04-25T13:14:33;12.60;99.90
41838;DHT22;27511;52.042;5.178;2023-04-25T13:16:58;12.90;99.90
41838;DHT22;27511;52.042;5.178;2023-04-25T13:19:24;13.20;99.90
41838;DHT22;27511;52.042;5.178;2023-04-25T13:21:50;13.30;99.90
41838;DHT22;27511;52.042;5.178;2023-04-25T13:24:16;13.40;99.90
41838;DHT22;27511;52.042;5.178;2023-04-25T13:26:43;13.80;99.90
41838;DHT22;27511;52.042;5.178;2023-04-25T13:29:08;14.10;99.90
41838;DHT22;27511;52.042;5.178;2023-04-25T13:31:34;14.40;99.90
41838;DHT22;27511;52.042;5.178;2023-04-25T13:33:59;14.20;99.90
41838;DHT22;27511;52.042;5.178;2023-04-25T13:36:25;14.10;99.90
41838;DHT22;27511;52.042;5.178;2023-04-25T13:38:51;14.20;99.90
41838;DHT22;27511;52.042;5.178;2023-04-25T13:41:16;14.20;99.90
41838;DHT22;27511;52.042;5.178;2023-04-25T13:43:44;14.10;99.90
41838;DHT22;27511;52.042;5.178;2023-04-25T13:46:10;14.00;99.90
41838;DHT22;27511;52.042;5.178;2023-04-25T13:48:36;13.60;99.90
41838;DHT22;27511;52.042;5.178;2023-04-25T13:51:02;13.50;99.90
41838;DHT22;27511;52.042;5.178;2023-04-25T13:53:27;13.90;99.90
41838;DHT22;27511;52.042;5.178;2023-04-25T13:55:53;14.40;99.90
41838;DHT22;27511;52.042;5.178;2023-04-25T13:58:19;14.10;99.90
41838;DHT22;27511;52.042;5.178;2023-04-25T14:00:45;14.20;99.90
41838;DHT22;27511;52.042;5.178;2023-04-25T14:03:11;14.60;99.90
41838;DHT22;27511;52.042;5.178;2023-04-25T14:05:37;15.00;99.90
41838;DHT22;27511;52.042;5.178;2023-04-25T14:08:06;14.90;99.90
41838;DHT22;27511;52.042;5.178;2023-04-25T14:10:32;15.00;99.90
41838;DHT22;27511;52.042;5.178;2023-04-25T14:12:58;14.70;99.90
41838;DHT22;27511;52.042;5.178;2023-04-25T14:15:23;14.00;99.90
41838;DHT22;27511;52.042;5.178;2023-04-25T14:17:49;13.00;99.90
41838;DHT22;27511;52.042;5.178;2023-04-25T14:20:15;12.40;99.90
41838;DHT22;27511;52.042;5.178;2023-04-25T14:22:40;12.20;99.90
41838;DHT22;27511;52.042;5.178;2023-04-25T14:25:08;12.10;99.90
41838;DHT22;27511;52.042;5.178;2023-04-25T14:27:34;12.70;99.90
41838;DHT22;27511;52.042;5.178;2023-04-25T14:30:00;13.20;99.90
41838;DHT22;27511;52.042;5.178;2023-04-25T14:32:25;13.40;99.90
41838;DHT22;27511;52.042;5.178;2023-04-25T14:34:51;13.20;99.90
41838;DHT22;27511;52.042;5.178;2023-04-25T14:37:16;13.00;99.90
41838;DHT22;27511;52.042;5.178;2023-04-25T14:39:42;13.20;99.90
41838;DHT22;27511;52.042;5.178;2023-04-25T14:42:07;13.30;99.90
41838;DHT22;27511;52.042;5.178;2023-04-25T14:44:33;13.20;99.90
41838;DHT22;27511;52.042;5.178;2023-04-25T14:46:58;13.00;99.90
41838;DHT22;27511;52.042;5.178;2023-04-25T14:49:24;12.80;99.90
41838;DHT22;27511;52.042;5.178;2023-04-25T14:51:49;12.60;99.90
41838;DHT22;27511;52.042;5.178;2023-04-25T14:54:15;12.70;99.90
41838;DHT22;27511;52.042;5.178;2023-04-25T14:56:40;12.60;99.90
41838;DHT22;27511;52.042;5.178;2023-04-25T14:59:06;12.80;99.90
41838;DHT22;27511;52.042;5.178;2023-04-25T15:01:32;13.00;99.90
41838;DHT22;27511;52.042;5.178;2023-04-25T15:04:00;13.60;99.90
41838;DHT22;27511;52.042;5.178;2023-04-25T15:06:26;14.40;99.90
41838;DHT22;27511;52.042;5.178;2023-04-25T15:08:55;14.90;99.90
41838;DHT22;27511;52.042;5.178;2023-04-25T15:11:22;14.80;99.90
41838;DHT22;27511;52.042;5.178;2023-04-25T15:13:47;14.70;99.90
41838;DHT22;27511;52.042;5.178;2023-04-25T15:16:13;15.20;99.90
41838;DHT22;27511;52.042;5.178;2023-04-25T15:18:38;15.80;99.90
41838;DHT22;27511;52.042;5.178;2023-04-25T15:21:04;16.50;99.90
41838;DHT22;27511;52.042;5.178;2023-04-25T15:23:29;15.50;99.90
41838;DHT22;27511;52.042;5.178;2023-04-25T15:25:55;14.40;99.90
41838;DHT22;27511;52.042;5.178;2023-04-25T15:28:21;13.50;99.90
41838;DHT22;27511;52.042;5.178;2023-04-25T15:30:47;13.30;99.90
41838;DHT22;27511;52.042;5.178;2023-04-25T15:33:12;13.80;99.90
41838;DHT22;27511;52.042;5.178;2023-04-25T15:35:38;13.90;99.90
41838;DHT22;27511;52.042;5.178;2023-04-25T15:38:04;14.20;99.90